Time;durP1;ratioP1;P1;durP2;ratioP2;P2;SDS_P1;SDS_P2;PMS_P1;PMS_P2;Temp;Humidity;BMP_temperature;BMP_pressure;BME280_temperature;BME280_humidity;BME280_pressure;Samples;Min_cycle;Max_cycle;Signal;HPM_P1;HPM_P2
2023/03/14 00:00:19;;;;;;;;;;;26.00;99.90;;;;;;4896474;29;19919;-49
2023/03/14 00:02:45;;;;;;;;;;;26.00;99.90;;;;;;4897158;29;19907;-49
2023/03/14 00:05:10;;;;;;;;;;;26.00;99.90;;;;;;4896841;29;19991;-50
2023/03/14 00:07:37;;;;;;;;;;;26.00;99.90;;;;;;4896373;29;19951;-50
2023/03/14 00:10:07;;;;;;;;;;;26.00;99.90;;;;;;4895748;29;19934;-50
2023/03/14 00:12:33;;;;;;;;;;;26.00;99.90;;;;;;4885543;29;20347;-50
2023/03/14 00:14:59;;;;;;;;;;;26.00;99.90;;;;;;4896429;29;19934;-51
2023/03/14 00:17:26;;;;;;;;;;;25.90;99.90;;;;;;4896731;29;19912;-51
2023/03/14 00:19:53;;;;;;;;;;;25.90;99.90;;;;;;4896986;29;19919;-51
2023/03/14 00:22:19;;;;;;;;;;;25.90;99.90;;;;;;4899893;29;19911;-55
2023/03/14 00:24:45;;;;;;;;;;;25.90;99.90;;;;;;4900457;29;19946;-49
2023/03/14 00:27:11;;;;;;;;;;;25.90;99.90;;;;;;4900259;29;20352;-51
2023/03/14 00:29:36;;;;;;;;;;;25.90;99.90;;;;;;4885804;29;20379;-49
2023/03/14 00:32:02;;;;;;;;;;;25.90;99.90;;;;;;4881383;29;20043;-49
2023/03/14 00:34:31;;;;;;;;;;;25.90;99.90;;;;;;4881290;29;19912;-49
2023/03/14 00:36:57;;;;;;;;;;;25.90;99.90;;;;;;4895310;29;20002;-49
2023/03/14 00:39:22;;;;;;;;;;;25.90;99.90;;;;;;4896597;29;19968;-50
2023/03/14 00:41:48;;;;;;;;;;;25.90;99.90;;;;;;4899806;29;19919;-49
2023/03/14 00:44:14;;;;;;;;;;;25.80;99.90;;;;;;4899846;29;19946;-49
2023/03/14 00:46:39;;;;;;;;;;;25.80;99.90;;;;;;4899807;29;20280;-49
2023/03/14 00:49:05;;;;;;;;;;;25.80;99.90;;;;;;4899482;29;20442;-49
2023/03/14 00:51:30;;;;;;;;;;;25.80;99.90;;;;;;4899781;29;19966;-49
2023/03/14 00:53:56;;;;;;;;;;;25.80;99.90;;;;;;4899332;29;19911;-49
2023/03/14 00:56:22;;;;;;;;;;;25.80;99.90;;;;;;4899747;29;20006;-50
2023/03/14 00:58:47;;;;;;;;;;;25.80;99.90;;;;;;4898467;29;19959;-50
2023/03/14 01:01:18;;;;;;;;;;;25.80;99.90;;;;;;4899641;29;19971;-50
2023/03/14 01:03:44;;;;;;;;;;;25.80;99.90;;;;;;4899613;29;20396;-49
2023/03/14 01:06:10;;;;;;;;;;;25.80;99.90;;;;;;4899528;29;20249;-50
2023/03/14 01:08:35;;;;;;;;;;;25.80;99.90;;;;;;4898757;29;19922;-50
2023/03/14 01:11:05;;;;;;;;;;;25.80;99.90;;;;;;4899599;29;19915;-50
2023/03/14 01:13:30;;;;;;;;;;;25.70;99.90;;;;;;4899261;29;19907;-50
2023/03/14 01:16:00;;;;;;;;;;;25.80;99.90;;;;;;4898914;29;19915;-50
2023/03/14 01:18:26;;;;;;;;;;;25.70;99.90;;;;;;4899272;29;19962;-49
2023/03/14 01:20:51;;;;;;;;;;;25.70;99.90;;;;;;4899264;29;19907;-50
2023/03/14 01:23:17;;;;;;;;;;;25.70;99.90;;;;;;4899401;29;20359;-50
2023/03/14 01:25:42;;;;;;;;;;;25.70;99.90;;;;;;4910768;29;19911;-49
2023/03/14 01:28:08;;;;;;;;;;;25.70;99.90;;;;;;4899110;29;20324;-50
2023/03/14 01:30:34;;;;;;;;;;;25.60;99.90;;;;;;4898874;29;20002;-49
2023/03/14 01:32:59;;;;;;;;;;;25.60;99.90;;;;;;4898232;29;19915;-49
2023/03/14 01:35:25;;;;;;;;;;;25.60;99.90;;;;;;4898924;29;19998;-50
2023/03/14 01:37:50;;;;;;;;;;;25.60;99.90;;;;;;4902736;29;19907;-49
2023/03/14 01:40:16;;;;;;;;;;;25.60;99.90;;;;;;4907677;29;19934;-50
2023/03/14 01:43:05;;;;;;;;;;;25.60;99.90;;;;;;4884341;29;20376;-50
2023/03/14 01:45:49;;;;;;;;;;;25.50;99.90;;;;;;4898474;29;19963;-49
2023/03/14 01:48:14;;;;;;;;;;;25.50;99.90;;;;;;4897014;29;19980;-49
2023/03/14 01:50:40;;;;;;;;;;;25.50;99.90;;;;;;4898129;29;20344;-50
2023/03/14 01:53:06;;;;;;;;;;;25.50;99.90;;;;;;4898563;29;19915;-49
2023/03/14 01:55:31;;;;;;;;;;;25.50;99.90;;;;;;4898560;29;20374;-50
2023/03/14 01:57:59;;;;;;;;;;;25.50;99.90;;;;;;4898705;29;19957;-48
2023/03/14 02:00:25;;;;;;;;;;;25.50;99.90;;;;;;4917757;23;19923;-49
2023/03/14 02:02:56;;;;;;;;;;;25.40;99.90;;;;;;4917792;29;19994;-48
2023/03/14 02:05:26;;;;;;;;;;;25.40;99.90;;;;;;4917749;29;19933;-48
2023/03/14 02:07:53;;;;;;;;;;;25.40;99.90;;;;;;4917783;29;19907;-49
2023/03/14 02:10:20;;;;;;;;;;;25.40;99.90;;;;;;4932114;29;19963;-49
2023/03/14 02:12:50;;;;;;;;;;;25.40;99.90;;;;;;4915990;29;19914;-49
2023/03/14 02:15:16;;;;;;;;;;;25.40;99.90;;;;;;4917136;29;19911;-48
2023/03/14 02:17:43;;;;;;;;;;;25.40;99.90;;;;;;4917037;29;19915;-48
2023/03/14 02:20:14;;;;;;;;;;;25.40;99.90;;;;;;4917383;29;19929;-50
2023/03/14 02:22:42;;;;;;;;;;;25.30;99.90;;;;;;4917136;29;19914;-48
2023/03/14 02:25:10;;;;;;;;;;;25.30;99.90;;;;;;4917207;29;19911;-51
2023/03/14 02:27:36;;;;;;;;;;;25.30;99.90;;;;;;4917230;29;19907;-51
2023/03/14 02:30:04;;;;;;;;;;;25.30;99.90;;;;;;4917153;29;19918;-51
2023/03/14 02:32:31;;;;;;;;;;;25.30;99.90;;;;;;4916975;29;19907;-50
2023/03/14 02:34:57;;;;;;;;;;;25.30;99.90;;;;;;4916841;29;19914;-49
2023/03/14 02:37:26;;;;;;;;;;;25.20;99.90;;;;;;4917158;29;19962;-49
2023/03/14 02:39:52;;;;;;;;;;;25.20;99.90;;;;;;4917242;29;20019;-49
2023/03/14 02:42:18;;;;;;;;;;;25.20;99.90;;;;;;4915794;29;19995;-50
2023/03/14 02:44:52;;;;;;;;;;;25.20;99.90;;;;;;4916853;29;19907;-49
2023/03/14 02:47:20;;;;;;;;;;;25.20;99.90;;;;;;4916860;29;19907;-50
2023/03/14 02:49:46;;;;;;;;;;;25.20;99.90;;;;;;4916857;29;19993;-50
2023/03/14 02:52:12;;;;;;;;;;;25.20;99.90;;;;;;4916809;29;20010;-49
2023/03/14 02:54:37;;;;;;;;;;;25.10;99.90;;;;;;4915460;29;19985;-50
2023/03/14 02:57:03;;;;;;;;;;;25.10;99.90;;;;;;4916855;29;19914;-50
2023/03/14 02:59:28;;;;;;;;;;;25.10;99.90;;;;;;4928312;23;19907;-50
2023/03/14 03:01:54;;;;;;;;;;;25.10;99.90;;;;;;4897564;29;20006;-50
2023/03/14 03:04:20;;;;;;;;;;;25.10;99.90;;;;;;4897579;29;19914;-50
2023/03/14 03:06:45;;;;;;;;;;;25.10;99.90;;;;;;4897620;29;19918;-49
2023/03/14 03:09:11;;;;;;;;;;;25.10;99.90;;;;;;4897617;29;20009;-50
2023/03/14 03:11:36;;;;;;;;;;;25.00;99.90;;;;;;4897688;29;19907;-50
2023/03/14 03:14:02;;;;;;;;;;;25.00;99.90;;;;;;4897756;29;20469;-50
2023/03/14 03:16:27;;;;;;;;;;;25.00;99.90;;;;;;4896454;29;19907;-49
2023/03/14 03:18:53;;;;;;;;;;;25.00;99.90;;;;;;4897645;29;19912;-49
2023/03/14 03:21:23;;;;;;;;;;;25.00;99.90;;;;;;4897462;29;19998;-50
2023/03/14 03:23:48;;;;;;;;;;;25.00;99.90;;;;;;4897436;29;19911;-50
2023/03/14 03:26:14;;;;;;;;;;;25.00;99.90;;;;;;4896202;29;19914;-50
2023/03/14 03:28:39;;;;;;;;;;;24.90;99.90;;;;;;4897343;29;19916;-50
2023/03/14 03:31:11;;;;;;;;;;;25.00;99.90;;;;;;4897617;29;19990;-48
2023/03/14 03:33:37;;;;;;;;;;;25.00;99.90;;;;;;4897422;29;19908;-48
2023/03/14 03:36:03;;;;;;;;;;;24.90;99.90;;;;;;4897393;29;19907;-48
2023/03/14 03:38:28;;;;;;;;;;;24.90;99.90;;;;;;4897418;29;20003;-48
2023/03/14 03:40:54;;;;;;;;;;;24.90;99.90;;;;;;4897528;29;20320;-48
2023/03/14 03:43:20;;;;;;;;;;;24.90;99.90;;;;;;4897481;29;19907;-48
2023/03/14 03:45:45;;;;;;;;;;;24.90;99.90;;;;;;4897295;29;19914;-48
2023/03/14 03:48:11;;;;;;;;;;;24.80;99.90;;;;;;4897162;29;19915;-47
2023/03/14 03:50:36;;;;;;;;;;;24.80;99.90;;;;;;4897314;29;19923;-48
2023/03/14 03:53:02;;;;;;;;;;;24.80;99.90;;;;;;4897406;29;20264;-48
2023/03/14 03:55:28;;;;;;;;;;;24.80;99.90;;;;;;4898816;29;20067;-48
2023/03/14 03:57:54;;;;;;;;;;;24.80;99.90;;;;;;4901013;29;19922;-48
2023/03/14 04:00:19;;;;;;;;;;;24.80;99.90;;;;;;4901407;29;20416;-48
2023/03/14 04:02:45;;;;;;;;;;;24.80;99.90;;;;;;4899574;29;20356;-48
2023/03/14 04:05:10;;;;;;;;;;;24.70;99.90;;;;;;4900769;29;19908;-48
2023/03/14 04:07:36;;;;;;;;;;;24.70;99.90;;;;;;4900777;29;19908;-48
2023/03/14 04:10:02;;;;;;;;;;;24.70;99.90;;;;;;4900703;29;20473;-50
2023/03/14 04:12:27;;;;;;;;;;;24.70;99.90;;;;;;4900785;29;19908;-47
2023/03/14 04:14:53;;;;;;;;;;;24.70;99.90;;;;;;4900735;29;19911;-47
2023/03/14 04:17:18;;;;;;;;;;;24.70;99.90;;;;;;4900696;29;19987;-48
2023/03/14 04:19:44;;;;;;;;;;;24.70;99.90;;;;;;4900411;29;19911;-48
2023/03/14 04:22:10;;;;;;;;;;;24.70;99.90;;;;;;4900585;29;19939;-48
2023/03/14 04:24:35;;;;;;;;;;;24.70;99.90;;;;;;4900318;29;19963;-48
2023/03/14 04:27:01;;;;;;;;;;;24.60;99.90;;;;;;4882839;29;19912;-48
2023/03/14 04:29:26;;;;;;;;;;;24.60;99.90;;;;;;4884062;29;20014;-48
2023/03/14 04:31:52;;;;;;;;;;;24.60;99.90;;;;;;4900182;29;19950;-48
2023/03/14 04:34:17;;;;;;;;;;;24.60;99.90;;;;;;4900077;29;19912;-48
2023/03/14 04:36:43;;;;;;;;;;;24.60;99.90;;;;;;4900233;29;19911;-48
2023/03/14 04:39:09;;;;;;;;;;;24.60;99.90;;;;;;4900290;29;20307;-48
2023/03/14 04:41:34;;;;;;;;;;;24.60;99.90;;;;;;4899990;29;19908;-48
2023/03/14 04:44:00;;;;;;;;;;;24.60;99.90;;;;;;4900064;29;19914;-48
2023/03/14 04:46:25;;;;;;;;;;;24.50;99.90;;;;;;4900083;29;19911;-48
2023/03/14 04:48:51;;;;;;;;;;;24.50;99.90;;;;;;4900058;29;19958;-48
2023/03/14 04:51:17;;;;;;;;;;;24.50;99.90;;;;;;4899866;29;20048;-48
2023/03/14 04:53:42;;;;;;;;;;;24.50;99.90;;;;;;4899838;29;19995;-48
2023/03/14 04:56:08;;;;;;;;;;;24.50;99.90;;;;;;4899552;29;20274;-48
2023/03/14 04:58:34;;;;;;;;;;;24.50;99.90;;;;;;4899808;29;19955;-47
2023/03/14 05:01:03;;;;;;;;;;;24.50;99.90;;;;;;4900556;29;20295;-48
2023/03/14 05:03:29;;;;;;;;;;;24.40;99.90;;;;;;4899739;29;19911;-48
2023/03/14 05:05:55;;;;;;;;;;;24.50;99.90;;;;;;4899286;29;20359;-48
2023/03/14 05:08:21;;;;;;;;;;;24.40;99.90;;;;;;4898538;29;19970;-47
2023/03/14 05:10:51;;;;;;;;;;;24.40;99.90;;;;;;4899645;29;20355;-48
2023/03/14 05:13:17;;;;;;;;;;;24.40;99.90;;;;;;4899298;29;19958;-48
2023/03/14 05:15:42;;;;;;;;;;;24.40;99.90;;;;;;4899413;29;19943;-48
2023/03/14 05:18:08;;;;;;;;;;;24.40;99.90;;;;;;4897334;29;20337;-48
2023/03/14 05:20:34;;;;;;;;;;;24.40;99.90;;;;;;4899518;29;19996;-48
2023/03/14 05:23:00;;;;;;;;;;;24.30;99.90;;;;;;4899485;29;19914;-48
2023/03/14 05:25:26;;;;;;;;;;;24.40;99.90;;;;;;4899232;29;19907;-48
2023/03/14 05:27:53;;;;;;;;;;;24.30;99.90;;;;;;4899089;29;19998;-47
2023/03/14 05:30:19;;;;;;;;;;;24.30;99.90;;;;;;4899091;29;19911;-48
2023/03/14 05:32:45;;;;;;;;;;;24.30;99.90;;;;;;4898966;29;19930;-48
2023/03/14 05:35:10;;;;;;;;;;;24.30;99.90;;;;;;4899101;29;19907;-48
2023/03/14 05:37:36;;;;;;;;;;;24.30;99.90;;;;;;4911385;29;20013;-48
2023/03/14 05:40:02;;;;;;;;;;;24.30;99.90;;;;;;4899218;29;19908;-48
2023/03/14 05:42:28;;;;;;;;;;;24.30;99.90;;;;;;4898884;29;19907;-48
2023/03/14 05:44:53;;;;;;;;;;;24.30;99.90;;;;;;4899131;29;20391;-48
2023/03/14 05:47:19;;;;;;;;;;;24.20;99.90;;;;;;4898809;29;19907;-49
2023/03/14 05:49:45;;;;;;;;;;;24.20;99.90;;;;;;4904486;29;20411;-48
2023/03/14 05:52:10;;;;;;;;;;;24.20;99.90;;;;;;4905239;29;19914;-48
2023/03/14 05:54:36;;;;;;;;;;;24.20;99.90;;;;;;4898892;29;19942;-48
2023/03/14 05:57:02;;;;;;;;;;;24.20;99.90;;;;;;4898682;29;19907;-48
2023/03/14 05:59:27;;;;;;;;;;;24.10;99.90;;;;;;4898215;29;19911;-47
2023/03/14 06:01:53;;;;;;;;;;;24.10;99.90;;;;;;4898471;29;19919;-48
2023/03/14 06:04:18;;;;;;;;;;;24.20;99.90;;;;;;4898402;29;20021;-48
2023/03/14 06:06:44;;;;;;;;;;;24.10;99.90;;;;;;4898382;29;19907;-48
2023/03/14 06:09:09;;;;;;;;;;;24.10;99.90;;;;;;4899457;29;19973;-48
2023/03/14 06:11:35;;;;;;;;;;;24.10;99.90;;;;;;4910040;29;19915;-47
2023/03/14 06:14:01;;;;;;;;;;;24.10;99.90;;;;;;4898395;29;19962;-48
2023/03/14 06:16:26;;;;;;;;;;;24.10;99.90;;;;;;4898563;29;19914;-48
2023/03/14 06:18:52;;;;;;;;;;;24.10;99.90;;;;;;4897818;29;19907;-48
2023/03/14 06:21:19;;;;;;;;;;;24.10;99.90;;;;;;4898014;29;19907;-48
2023/03/14 06:23:45;;;;;;;;;;;24.00;99.90;;;;;;4898113;29;19914;-48
2023/03/14 06:26:11;;;;;;;;;;;24.10;99.90;;;;;;4893711;29;20352;-48
2023/03/14 06:28:37;;;;;;;;;;;24.00;99.90;;;;;;4889495;29;19911;-48
2023/03/14 06:31:03;;;;;;;;;;;24.00;99.90;;;;;;4897875;29;20338;-47
2023/03/14 06:33:29;;;;;;;;;;;24.00;99.90;;;;;;4898254;29;19907;-48
2023/03/14 06:35:54;;;;;;;;;;;24.00;99.90;;;;;;4897916;29;19907;-48
2023/03/14 06:38:20;;;;;;;;;;;24.00;99.90;;;;;;4897878;29;20288;-48
2023/03/14 06:40:45;;;;;;;;;;;23.90;99.90;;;;;;4897784;29;19915;-47
2023/03/14 06:43:11;;;;;;;;;;;23.90;99.90;;;;;;4897676;29;19914;-50
2023/03/14 06:45:37;;;;;;;;;;;23.90;99.90;;;;;;4897897;29;19915;-48
2023/03/14 06:48:03;;;;;;;;;;;23.90;99.90;;;;;;4897450;29;19949;-47
2023/03/14 06:50:28;;;;;;;;;;;23.90;99.90;;;;;;4897452;29;19908;-47
2023/03/14 06:52:54;;;;;;;;;;;23.90;99.90;;;;;;4897764;29;19908;-47
2023/03/14 06:55:20;;;;;;;;;;;23.90;99.90;;;;;;4897525;29;19912;-49
2023/03/14 06:57:46;;;;;;;;;;;23.90;99.90;;;;;;4897550;29;20356;-49
2023/03/14 07:00:12;;;;;;;;;;;23.90;99.90;;;;;;4897492;29;19922;-49
2023/03/14 07:02:38;;;;;;;;;;;23.90;99.90;;;;;;4897582;29;19911;-49
2023/03/14 07:05:04;;;;;;;;;;;23.80;99.90;;;;;;4897561;29;19962;-49
2023/03/14 07:07:29;;;;;;;;;;;23.90;99.90;;;;;;4897652;29;19942;-49
2023/03/14 07:09:55;;;;;;;;;;;23.90;99.90;;;;;;4911804;29;19923;-50
2023/03/14 07:12:20;;;;;;;;;;;23.90;99.90;;;;;;4897171;29;20484;-48
2023/03/14 07:14:46;;;;;;;;;;;23.80;99.90;;;;;;4897303;29;20051;-48
2023/03/14 07:17:11;;;;;;;;;;;23.80;99.90;;;;;;4897586;29;19907;-47
2023/03/14 07:19:37;;;;;;;;;;;23.80;99.90;;;;;;4897529;29;20345;-47
2023/03/14 07:22:04;;;;;;;;;;;23.90;99.90;;;;;;4897121;29;19951;-49
2023/03/14 07:24:29;;;;;;;;;;;23.90;99.90;;;;;;4897113;29;19908;-49
2023/03/14 07:26:55;;;;;;;;;;;23.90;99.90;;;;;;4897180;29;19907;-49
2023/03/14 07:29:21;;;;;;;;;;;23.90;99.90;;;;;;4897002;29;19915;-50
2023/03/14 07:31:46;;;;;;;;;;;23.90;99.90;;;;;;4915527;29;20002;-50
2023/03/14 07:34:12;;;;;;;;;;;23.90;99.90;;;;;;4901246;29;19955;-49
2023/03/14 07:36:37;;;;;;;;;;;23.90;99.90;;;;;;4901233;29;19949;-49
2023/03/14 07:39:04;;;;;;;;;;;23.90;99.90;;;;;;4901265;29;19915;-47
2023/03/14 07:41:30;;;;;;;;;;;24.00;99.90;;;;;;4901069;29;19932;-47
2023/03/14 07:43:55;;;;;;;;;;;24.00;99.90;;;;;;4901159;29;19912;-48
2023/03/14 07:46:21;;;;;;;;;;;24.00;99.90;;;;;;4900979;29;19943;-48
2023/03/14 07:48:46;;;;;;;;;;;24.00;99.90;;;;;;4900784;29;19963;-48
2023/03/14 07:51:12;;;;;;;;;;;24.00;99.90;;;;;;4901021;29;19907;-50
2023/03/14 07:53:39;;;;;;;;;;;24.00;99.90;;;;;;4900663;29;19907;-48
2023/03/14 07:56:05;;;;;;;;;;;24.00;99.90;;;;;;4914987;29;19919;-47
2023/03/14 07:58:30;;;;;;;;;;;24.10;99.90;;;;;;4900697;29;20272;-50
2023/03/14 08:00:58;;;;;;;;;;;24.10;99.90;;;;;;4900453;29;19927;-48
2023/03/14 08:03:23;;;;;;;;;;;24.10;99.90;;;;;;4900487;29;19912;-48
2023/03/14 08:05:50;;;;;;;;;;;24.10;99.90;;;;;;4900661;29;19998;-48
2023/03/14 08:08:16;;;;;;;;;;;24.10;99.90;;;;;;4900586;29;20441;-47
2023/03/14 08:10:42;;;;;;;;;;;24.10;99.90;;;;;;4900606;29;20010;-50
2023/03/14 08:13:08;;;;;;;;;;;24.10;99.90;;;;;;4900674;29;19907;-48
2023/03/14 08:15:34;;;;;;;;;;;24.10;99.90;;;;;;4900482;29;19918;-48
2023/03/14 08:17:59;;;;;;;;;;;24.20;99.90;;;;;;4895695;29;19908;-50
2023/03/14 08:20:26;;;;;;;;;;;24.20;99.90;;;;;;4892648;29;19918;-50
2023/03/14 08:22:52;;;;;;;;;;;24.20;99.90;;;;;;4900186;29;20008;-48
2023/03/14 08:25:17;;;;;;;;;;;24.20;99.90;;;;;;4895718;29;20008;-48
2023/03/14 08:27:43;;;;;;;;;;;24.20;99.90;;;;;;4897814;29;19990;-48
2023/03/14 08:30:10;;;;;;;;;;;24.20;99.90;;;;;;4899990;29;19950;-48
2023/03/14 08:32:36;;;;;;;;;;;24.20;99.90;;;;;;4900129;29;19908;-47
2023/03/14 08:35:02;;;;;;;;;;;24.30;99.90;;;;;;4899944;29;20374;-48
2023/03/14 08:37:27;;;;;;;;;;;24.30;99.90;;;;;;4912358;29;19918;-48
2023/03/14 08:39:53;;;;;;;;;;;24.30;99.90;;;;;;4899845;29;20286;-48
2023/03/14 08:42:19;;;;;;;;;;;24.30;99.90;;;;;;4899751;29;19908;-48
2023/03/14 08:44:45;;;;;;;;;;;24.30;99.90;;;;;;4899932;29;19915;-50
2023/03/14 08:47:10;;;;;;;;;;;24.30;99.90;;;;;;4899859;29;19914;-50
2023/03/14 08:49:36;;;;;;;;;;;24.30;99.90;;;;;;4899662;29;19916;-48
2023/03/14 08:52:03;;;;;;;;;;;24.30;99.90;;;;;;4899973;29;19954;-48
2023/03/14 08:54:28;;;;;;;;;;;24.30;99.90;;;;;;4895506;29;19908;-48
2023/03/14 08:56:54;;;;;;;;;;;24.40;99.90;;;;;;4889716;29;19907;-48
2023/03/14 08:59:20;;;;;;;;;;;24.40;99.90;;;;;;4899508;29;19915;-47
2023/03/14 09:01:45;;;;;;;;;;;24.40;99.90;;;;;;4899316;29;20010;-49
2023/03/14 09:04:11;;;;;;;;;;;24.40;99.90;;;;;;4899428;29;19907;-47
2023/03/14 09:06:36;;;;;;;;;;;24.40;99.90;;;;;;4899736;29;19911;-50
2023/03/14 09:09:02;;;;;;;;;;;24.40;99.90;;;;;;4899242;29;19911;-48
2023/03/14 09:11:28;;;;;;;;;;;24.40;99.90;;;;;;4899347;29;20000;-48
2023/03/14 09:13:53;;;;;;;;;;;24.40;99.90;;;;;;4899380;29;19919;-48
2023/03/14 09:16:19;;;;;;;;;;;24.50;99.90;;;;;;4899516;29;20002;-48
2023/03/14 09:18:45;;;;;;;;;;;24.50;99.90;;;;;;4899345;29;19907;-48
2023/03/14 09:21:10;;;;;;;;;;;24.50;99.90;;;;;;4899282;29;19911;-48
2023/03/14 09:23:36;;;;;;;;;;;24.50;99.90;;;;;;4898799;29;19911;-48
2023/03/14 09:26:02;;;;;;;;;;;24.50;99.90;;;;;;4899262;29;19947;-48
2023/03/14 09:28:27;;;;;;;;;;;24.50;99.90;;;;;;4899033;29;20367;-49
2023/03/14 09:30:54;;;;;;;;;;;24.50;99.90;;;;;;4899015;29;19966;-49
2023/03/14 09:33:20;;;;;;;;;;;24.50;99.90;;;;;;4899179;29;19907;-51
2023/03/14 09:35:46;;;;;;;;;;;24.50;99.90;;;;;;4898698;29;19907;-50
2023/03/14 09:38:11;;;;;;;;;;;24.50;99.90;;;;;;4898902;29;19916;-50
2023/03/14 09:40:37;;;;;;;;;;;24.50;99.90;;;;;;4898566;29;19916;-50
2023/03/14 09:43:04;;;;;;;;;;;24.50;99.90;;;;;;4898693;29;19951;-48
2023/03/14 09:45:32;;;;;;;;;;;24.60;99.90;;;;;;4898661;29;19922;-48
2023/03/14 09:47:58;;;;;;;;;;;24.60;99.90;;;;;;4894068;29;20022;-47
2023/03/14 09:50:25;;;;;;;;;;;24.60;99.90;;;;;;4882687;29;20002;-48
2023/03/14 09:52:59;;;;;;;;;;;24.60;99.90;;;;;;4912704;29;19959;-48
2023/03/14 09:55:24;;;;;;;;;;;24.60;99.90;;;;;;4898492;29;19912;-47
2023/03/14 09:57:54;;;;;;;;;;;24.70;99.90;;;;;;4898669;29;20013;-47
2023/03/14 10:00:22;;;;;;;;;;;24.70;99.90;;;;;;4893747;29;20287;-48
2023/03/14 10:03:11;;;;;;;;;;;24.70;99.90;;;;;;4898263;29;19908;-50
2023/03/14 10:05:36;;;;;;;;;;;24.70;99.90;;;;;;4895331;29;19907;-48
2023/03/14 10:08:02;;;;;;;;;;;24.70;99.90;;;;;;4897179;29;19922;-48
2023/03/14 10:10:27;;;;;;;;;;;24.80;99.90;;;;;;4887893;29;19926;-48
2023/03/14 10:13:21;;;;;;;;;;;24.80;99.90;;;;;;4893355;29;19919;-48
2023/03/14 10:15:48;;;;;;;;;;;24.90;99.90;;;;;;4894742;29;19998;-47
2023/03/14 10:18:14;;;;;;;;;;;24.90;99.90;;;;;;4908034;29;19998;-48
2023/03/14 10:20:42;;;;;;;;;;;24.90;99.90;;;;;;4895559;29;19908;-47
2023/03/14 10:23:14;;;;;;;;;;;24.90;99.90;;;;;;4895747;29;19915;-48
2023/03/14 10:25:57;;;;;;;;;;;24.90;99.90;;;;;;4893421;29;19916;-48
2023/03/14 10:28:27;;;;;;;;;;;25.00;99.90;;;;;;4894054;29;19934;-47
2023/03/14 10:30:53;;;;;;;;;;;25.00;99.90;;;;;;4896267;29;20010;-48
2023/03/14 10:33:21;;;;;;;;;;;25.00;99.90;;;;;;4895329;29;19967;-49
2023/03/14 10:35:51;;;;;;;;;;;25.00;99.90;;;;;;4895772;29;19931;-48
2023/03/14 10:38:17;;;;;;;;;;;25.10;99.90;;;;;;4895619;29;20319;-49
2023/03/14 10:40:49;;;;;;;;;;;25.10;99.90;;;;;;4895485;29;19922;-48
2023/03/14 10:43:21;;;;;;;;;;;25.10;99.90;;;;;;4895470;29;19912;-49
2023/03/14 10:46:13;;;;;;;;;;;25.10;99.90;;;;;;4895532;29;20375;-48
2023/03/14 10:48:41;;;;;;;;;;;25.10;99.90;;;;;;4910283;29;20021;-48
2023/03/14 10:51:09;;;;;;;;;;;25.20;99.90;;;;;;4895160;29;19927;-49
2023/03/14 10:53:45;;;;;;;;;;;25.20;99.90;;;;;;4895724;29;19914;-49
2023/03/14 10:56:12;;;;;;;;;;;25.20;99.90;;;;;;4895252;29;19915;-50
2023/03/14 10:58:40;;;;;;;;;;;25.30;99.90;;;;;;4892735;29;19911;-50
2023/03/14 11:01:11;;;;;;;;;;;25.30;99.90;;;;;;4895380;29;19923;-49
2023/03/14 11:03:39;;;;;;;;;;;25.30;99.90;;;;;;4893410;29;20321;-48
2023/03/14 11:06:18;;;;;;;;;;;25.30;99.90;;;;;;4894640;29;19908;-49
2023/03/14 11:08:53;;;;;;;;;;;25.40;99.90;;;;;;4894003;29;19920;-48
2023/03/14 11:11:18;;;;;;;;;;;25.40;99.90;;;;;;4895128;29;20339;-48
2023/03/14 11:13:53;;;;;;;;;;;25.30;99.90;;;;;;4895388;29;19912;-49
2023/03/14 11:16:28;;;;;;;;;;;25.40;99.90;;;;;;4893725;29;20272;-49
2023/03/14 11:19:12;;;;;;;;;;;25.40;99.90;;;;;;4895218;29;19908;-48
2023/03/14 11:21:44;;;;;;;;;;;25.30;99.90;;;;;;4893118;29;19918;-49
2023/03/14 11:24:18;;;;;;;;;;;25.30;99.90;;;;;;4895381;29;20331;-49
2023/03/14 11:27:03;;;;;;;;;;;25.40;99.90;;;;;;4894528;29;19912;-48
2023/03/14 11:29:32;;;;;;;;;;;25.40;99.90;;;;;;4892889;29;19928;-49
2023/03/14 11:32:00;;;;;;;;;;;25.50;99.90;;;;;;4894778;29;19963;-49
2023/03/14 11:34:33;;;;;;;;;;;25.50;99.90;;;;;;4895159;29;20269;-49
2023/03/14 11:37:00;;;;;;;;;;;25.50;99.90;;;;;;4894518;29;20269;-48
2023/03/14 11:39:29;;;;;;;;;;;25.50;99.90;;;;;;4894323;29;19931;-48
2023/03/14 11:41:57;;;;;;;;;;;25.50;99.90;;;;;;4895064;29;19914;-49
2023/03/14 11:44:25;;;;;;;;;;;25.50;99.90;;;;;;4894869;29;19919;-48
2023/03/14 11:47:02;;;;;;;;;;;25.60;99.90;;;;;;4894231;29;19912;-48
2023/03/14 11:49:30;;;;;;;;;;;25.60;99.90;;;;;;4894653;29;19927;-47
2023/03/14 11:51:59;;;;;;;;;;;25.60;99.90;;;;;;4894599;29;19914;-48
2023/03/14 11:54:25;;;;;;;;;;;25.70;99.90;;;;;;4895211;29;20352;-47
2023/03/14 11:56:52;;;;;;;;;;;25.70;99.90;;;;;;4894268;29;19907;-48
2023/03/14 11:59:21;;;;;;;;;;;25.70;99.90;;;;;;4894711;29;19966;-48
2023/03/14 12:01:53;;;;;;;;;;;25.80;99.90;;;;;;4894070;29;20013;-48
2023/03/14 12:04:18;;;;;;;;;;;25.80;99.90;;;;;;4894533;29;19915;-48
2023/03/14 12:06:48;;;;;;;;;;;25.90;99.90;;;;;;4894486;29;19915;-48
2023/03/14 12:09:15;;;;;;;;;;;25.90;99.90;;;;;;4894603;29;19916;-49
2023/03/14 12:11:44;;;;;;;;;;;25.90;99.90;;;;;;4894272;29;19915;-48
2023/03/14 12:14:39;;;;;;;;;;;26.00;99.90;;;;;;4894770;29;19908;-49
2023/03/14 12:17:19;;;;;;;;;;;26.00;99.90;;;;;;4894644;29;20353;-48
2023/03/14 12:19:46;;;;;;;;;;;26.00;99.90;;;;;;4894764;29;19970;-48
2023/03/14 12:22:15;;;;;;;;;;;26.10;99.90;;;;;;4881132;29;19915;-49
2023/03/14 12:24:45;;;;;;;;;;;26.10;99.90;;;;;;4898346;29;19908;-49
2023/03/14 12:27:13;;;;;;;;;;;26.20;99.90;;;;;;4895382;29;20009;-48
2023/03/14 12:30:05;;;;;;;;;;;26.20;99.90;;;;;;4895842;29;20010;-49
2023/03/14 12:32:32;;;;;;;;;;;26.20;99.90;;;;;;4897274;29;19946;-49
2023/03/14 12:35:06;;;;;;;;;;;26.30;99.90;;;;;;4897919;29;19990;-48
2023/03/14 12:37:35;;;;;;;;;;;26.30;99.90;;;;;;4897376;29;19912;-49
2023/03/14 12:40:05;;;;;;;;;;;26.30;99.90;;;;;;4898118;29;20271;-49
2023/03/14 12:42:50;;;;;;;;;;;26.40;99.90;;;;;;4894043;29;20002;-48
2023/03/14 12:45:26;;;;;;;;;;;26.40;99.90;;;;;;4898006;29;20347;-49
2023/03/14 12:48:14;;;;;;;;;;;26.50;99.90;;;;;;4895308;29;19911;-49
2023/03/14 12:50:40;;;;;;;;;;;26.50;99.90;;;;;;4897435;29;19916;-49
2023/03/14 12:53:24;;;;;;;;;;;26.50;99.90;;;;;;4898142;29;20237;-52
2023/03/14 12:56:02;;;;;;;;;;;26.60;99.90;;;;;;4897379;29;19914;-49
2023/03/14 12:58:30;;;;;;;;;;;26.60;99.90;;;;;;4897272;29;19907;-50
2023/03/14 13:00:59;;;;;;;;;;;26.60;99.90;;;;;;4897660;29;19992;-50
2023/03/14 13:03:27;;;;;;;;;;;26.70;99.90;;;;;;4911737;29;19908;-50
2023/03/14 13:06:01;;;;;;;;;;;26.70;99.90;;;;;;4897019;29;19914;-49
2023/03/14 13:08:56;;;;;;;;;;;26.70;99.90;;;;;;4911568;29;20284;-50
2023/03/14 13:11:23;;;;;;;;;;;26.70;99.90;;;;;;4896817;29;19916;-50
2023/03/14 13:13:58;;;;;;;;;;;26.80;99.90;;;;;;4897384;29;20337;-49
2023/03/14 13:16:25;;;;;;;;;;;26.80;99.90;;;;;;4888093;29;19912;-49
2023/03/14 13:18:59;;;;;;;;;;;26.80;99.90;;;;;;4897018;29;19908;-49
2023/03/14 13:21:26;;;;;;;;;;;26.80;99.90;;;;;;4897293;29;19930;-51
2023/03/14 13:23:56;;;;;;;;;;;26.90;99.90;;;;;;4895559;29;19914;-50
2023/03/14 13:26:23;;;;;;;;;;;26.90;99.90;;;;;;4895730;29;19959;-49
2023/03/14 13:28:48;;;;;;;;;;;27.00;99.90;;;;;;4888370;29;19920;-50
2023/03/14 13:31:20;;;;;;;;;;;27.00;99.90;;;;;;4884946;29;19915;-50
2023/03/14 13:33:46;;;;;;;;;;;27.00;99.90;;;;;;4887835;29;20279;-51
2023/03/14 13:36:11;;;;;;;;;;;27.10;99.90;;;;;;4884931;29;19922;-50
2023/03/14 13:38:37;;;;;;;;;;;27.10;99.90;;;;;;4909015;29;20287;-50
2023/03/14 13:41:06;;;;;;;;;;;27.10;99.90;;;;;;4895446;29;20012;-48
2023/03/14 13:43:42;;;;;;;;;;;27.20;99.90;;;;;;4896858;29;19907;-48
2023/03/14 13:46:16;;;;;;;;;;;27.20;99.90;;;;;;4894662;29;19908;-50
2023/03/14 13:48:47;;;;;;;;;;;27.20;99.90;;;;;;4896047;29;20006;-49
2023/03/14 13:51:13;;;;;;;;;;;27.20;99.90;;;;;;4894618;29;19970;-47
2023/03/14 13:53:43;;;;;;;;;;;27.30;99.90;;;;;;4896085;29;19954;-50
2023/03/14 13:56:10;;;;;;;;;;;27.30;99.90;;;;;;4896518;29;19935;-47
2023/03/14 13:58:37;;;;;;;;;;;27.30;99.90;;;;;;4889915;29;19912;-48
2023/03/14 14:01:09;;;;;;;;;;;27.40;99.90;;;;;;4885843;29;19926;-51
2023/03/14 14:03:37;;;;;;;;;;;27.40;99.90;;;;;;4885186;29;19915;-47
2023/03/14 14:06:03;;;;;;;;;;;27.40;99.90;;;;;;4889906;29;19915;-48
2023/03/14 14:08:29;;;;;;;;;;;27.40;99.90;;;;;;4895851;29;19916;-48
2023/03/14 14:10:58;;;;;;;;;;;27.50;99.90;;;;;;4891938;29;19915;-49
2023/03/14 14:13:24;;;;;;;;;;;27.50;99.90;;;;;;4895750;29;19979;-49
2023/03/14 14:15:51;;;;;;;;;;;27.50;99.90;;;;;;4896409;29;19907;-48
2023/03/14 14:18:20;;;;;;;;;;;27.50;99.90;;;;;;4896127;29;20453;-48